sensor_id;sensor_type;location;lat;lon;timestamp;P1;durP1;ratioP1;P2;durP2;ratioP2
85472;SDS011;75874;41.386;22.136;2024-01-30T00:00:44;7.03;;;3.40;;
85472;SDS011;75874;41.386;22.136;2024-01-30T00:03:10;5.93;;;3.45;;
85472;SDS011;75874;41.386;22.136;2024-01-30T00:05:35;5.43;;;3.15;;
85472;SDS011;75874;41.386;22.136;2024-01-30T00:08:01;6.32;;;3.53;;
85472;SDS011;75874;41.386;22.136;2024-01-30T00:10:26;6.10;;;3.05;;
85472;SDS011;75874;41.386;22.136;2024-01-30T00:12:52;5.00;;;3.38;;
85472;SDS011;75874;41.386;22.136;2024-01-30T00:15:18;5.68;;;3.40;;
85472;SDS011;75874;41.386;22.136;2024-01-30T00:20:27;4.35;;;2.17;;
85472;SDS011;75874;41.386;22.136;2024-01-30T00:22:59;3.97;;;2.58;;
85472;SDS011;75874;41.386;22.136;2024-01-30T00:25:24;3.88;;;2.40;;
85472;SDS011;75874;41.386;22.136;2024-01-30T00:27:50;4.32;;;2.33;;
85472;SDS011;75874;41.386;22.136;2024-01-30T00:30:16;3.63;;;2.17;;
85472;SDS011;75874;41.386;22.136;2024-01-30T00:32:42;4.50;;;2.17;;
85472;SDS011;75874;41.386;22.136;2024-01-30T00:35:07;3.65;;;2.33;;
85472;SDS011;75874;41.386;22.136;2024-01-30T00:37:35;5.20;;;2.45;;
85472;SDS011;75874;41.386;22.136;2024-01-30T00:43:00;5.28;;;2.90;;
85472;SDS011;75874;41.386;22.136;2024-01-30T00:45:26;4.20;;;2.28;;
85472;SDS011;75874;41.386;22.136;2024-01-30T00:50:39;5.30;;;2.55;;
85472;SDS011;75874;41.386;22.136;2024-01-30T00:53:04;4.28;;;2.35;;
85472;SDS011;75874;41.386;22.136;2024-01-30T00:55:30;2.75;;;1.75;;
85472;SDS011;75874;41.386;22.136;2024-01-30T00:57:56;3.83;;;2.50;;
85472;SDS011;75874;41.386;22.136;2024-01-30T01:00:21;4.05;;;2.10;;
85472;SDS011;75874;41.386;22.136;2024-01-30T01:02:48;4.57;;;2.20;;
85472;SDS011;75874;41.386;22.136;2024-01-30T01:05:14;4.63;;;2.05;;
85472;SDS011;75874;41.386;22.136;2024-01-30T01:07:39;4.90;;;2.13;;
85472;SDS011;75874;41.386;22.136;2024-01-30T01:10:07;3.72;;;2.47;;
85472;SDS011;75874;41.386;22.136;2024-01-30T01:12:33;3.70;;;2.47;;
85472;SDS011;75874;41.386;22.136;2024-01-30T01:14:59;4.00;;;2.70;;
85472;SDS011;75874;41.386;22.136;2024-01-30T01:17:24;6.97;;;2.55;;
85472;SDS011;75874;41.386;22.136;2024-01-30T01:19:50;3.03;;;2.10;;
85472;SDS011;75874;41.386;22.136;2024-01-30T01:22:16;5.15;;;2.80;;
85472;SDS011;75874;41.386;22.136;2024-01-30T01:24:42;4.15;;;2.58;;
85472;SDS011;75874;41.386;22.136;2024-01-30T01:27:08;3.70;;;2.25;;
85472;SDS011;75874;41.386;22.136;2024-01-30T01:29:33;5.43;;;2.85;;
85472;SDS011;75874;41.386;22.136;2024-01-30T01:31:59;3.95;;;2.05;;
85472;SDS011;75874;41.386;22.136;2024-01-30T01:34:24;3.72;;;2.28;;
85472;SDS011;75874;41.386;22.136;2024-01-30T01:36:50;12.25;;;2.88;;
85472;SDS011;75874;41.386;22.136;2024-01-30T01:39:17;4.15;;;2.70;;
85472;SDS011;75874;41.386;22.136;2024-01-30T01:41:43;4.55;;;2.72;;
85472;SDS011;75874;41.386;22.136;2024-01-30T01:44:08;4.03;;;2.42;;
85472;SDS011;75874;41.386;22.136;2024-01-30T01:46:34;4.63;;;2.60;;
85472;SDS011;75874;41.386;22.136;2024-01-30T01:49:04;4.25;;;2.40;;
85472;SDS011;75874;41.386;22.136;2024-01-30T01:51:31;3.42;;;2.30;;
85472;SDS011;75874;41.386;22.136;2024-01-30T01:53:58;3.25;;;1.88;;
85472;SDS011;75874;41.386;22.136;2024-01-30T01:56:42;4.78;;;2.92;;
85472;SDS011;75874;41.386;22.136;2024-01-30T01:59:08;5.00;;;2.30;;
85472;SDS011;75874;41.386;22.136;2024-01-30T02:01:38;4.78;;;2.45;;
85472;SDS011;75874;41.386;22.136;2024-01-30T02:04:07;5.72;;;2.97;;
85472;SDS011;75874;41.386;22.136;2024-01-30T02:06:33;5.65;;;3.22;;
85472;SDS011;75874;41.386;22.136;2024-01-30T02:09:00;5.65;;;2.80;;
85472;SDS011;75874;41.386;22.136;2024-01-30T02:11:26;5.13;;;2.97;;
85472;SDS011;75874;41.386;22.136;2024-01-30T02:13:53;5.88;;;2.80;;
85472;SDS011;75874;41.386;22.136;2024-01-30T02:16:19;7.97;;;3.50;;
85472;SDS011;75874;41.386;22.136;2024-01-30T02:18:44;4.88;;;2.58;;
85472;SDS011;75874;41.386;22.136;2024-01-30T02:21:16;6.15;;;3.40;;
85472;SDS011;75874;41.386;22.136;2024-01-30T02:23:43;5.78;;;3.22;;
85472;SDS011;75874;41.386;22.136;2024-01-30T02:26:11;5.82;;;3.40;;
85472;SDS011;75874;41.386;22.136;2024-01-30T02:28:37;5.07;;;2.47;;
85472;SDS011;75874;41.386;22.136;2024-01-30T02:31:04;6.97;;;3.55;;
85472;SDS011;75874;41.386;22.136;2024-01-30T02:33:30;6.55;;;3.35;;
85472;SDS011;75874;41.386;22.136;2024-01-30T02:35:55;7.55;;;3.35;;
85472;SDS011;75874;41.386;22.136;2024-01-30T02:38:21;8.75;;;3.13;;
85472;SDS011;75874;41.386;22.136;2024-01-30T02:40:48;4.97;;;3.35;;
85472;SDS011;75874;41.386;22.136;2024-01-30T02:43:15;7.68;;;3.47;;
85472;SDS011;75874;41.386;22.136;2024-01-30T02:45:42;6.35;;;3.20;;
85472;SDS011;75874;41.386;22.136;2024-01-30T02:48:08;6.07;;;3.13;;
85472;SDS011;75874;41.386;22.136;2024-01-30T02:50:33;6.47;;;3.55;;
85472;SDS011;75874;41.386;22.136;2024-01-30T02:52:59;4.75;;;2.88;;
85472;SDS011;75874;41.386;22.136;2024-01-30T02:55:25;8.88;;;3.90;;
85472;SDS011;75874;41.386;22.136;2024-01-30T02:57:51;6.78;;;3.90;;
85472;SDS011;75874;41.386;22.136;2024-01-30T03:00:16;7.82;;;4.07;;
85472;SDS011;75874;41.386;22.136;2024-01-30T03:05:41;6.47;;;3.17;;
85472;SDS011;75874;41.386;22.136;2024-01-30T03:08:07;4.95;;;3.30;;
85472;SDS011;75874;41.386;22.136;2024-01-30T03:10:33;4.65;;;2.97;;
85472;SDS011;75874;41.386;22.136;2024-01-30T03:12:58;9.98;;;3.55;;
85472;SDS011;75874;41.386;22.136;2024-01-30T03:15:24;9.10;;;3.35;;
85472;SDS011;75874;41.386;22.136;2024-01-30T03:17:50;5.70;;;3.40;;
85472;SDS011;75874;41.386;22.136;2024-01-30T03:20:15;5.85;;;3.35;;
85472;SDS011;75874;41.386;22.136;2024-01-30T03:22:41;5.65;;;3.65;;
85472;SDS011;75874;41.386;22.136;2024-01-30T03:25:07;5.40;;;3.70;;
85472;SDS011;75874;41.386;22.136;2024-01-30T03:27:32;6.80;;;3.13;;
85472;SDS011;75874;41.386;22.136;2024-01-30T03:29:58;5.53;;;3.13;;
85472;SDS011;75874;41.386;22.136;2024-01-30T03:32:24;5.43;;;3.17;;
85472;SDS011;75874;41.386;22.136;2024-01-30T03:34:49;6.20;;;2.60;;
85472;SDS011;75874;41.386;22.136;2024-01-30T03:37:15;4.50;;;3.15;;
85472;SDS011;75874;41.386;22.136;2024-01-30T03:39:41;5.22;;;3.45;;
85472;SDS011;75874;41.386;22.136;2024-01-30T03:42:06;4.70;;;2.90;;
85472;SDS011;75874;41.386;22.136;2024-01-30T03:44:32;7.18;;;3.28;;
85472;SDS011;75874;41.386;22.136;2024-01-30T03:46:58;5.10;;;3.13;;
85472;SDS011;75874;41.386;22.136;2024-01-30T03:49:23;7.22;;;3.20;;
85472;SDS011;75874;41.386;22.136;2024-01-30T03:51:49;4.78;;;2.65;;
85472;SDS011;75874;41.386;22.136;2024-01-30T03:54:15;4.30;;;2.42;;
85472;SDS011;75874;41.386;22.136;2024-01-30T03:56:41;6.35;;;3.03;;
85472;SDS011;75874;41.386;22.136;2024-01-30T03:59:06;4.18;;;2.90;;
85472;SDS011;75874;41.386;22.136;2024-01-30T04:01:32;6.30;;;3.15;;
85472;SDS011;75874;41.386;22.136;2024-01-30T04:03:58;4.65;;;3.05;;
85472;SDS011;75874;41.386;22.136;2024-01-30T04:06:24;5.53;;;3.08;;
85472;SDS011;75874;41.386;22.136;2024-01-30T04:08:49;6.13;;;3.72;;
85472;SDS011;75874;41.386;22.136;2024-01-30T04:11:17;3.70;;;2.42;;
85472;SDS011;75874;41.386;22.136;2024-01-30T04:13:51;6.10;;;2.92;;
85472;SDS011;75874;41.386;22.136;2024-01-30T04:16:20;4.18;;;2.55;;
85472;SDS011;75874;41.386;22.136;2024-01-30T04:18:47;5.28;;;3.13;;
85472;SDS011;75874;41.386;22.136;2024-01-30T04:21:13;3.53;;;2.35;;
85472;SDS011;75874;41.386;22.136;2024-01-30T04:23:39;5.65;;;3.17;;
85472;SDS011;75874;41.386;22.136;2024-01-30T04:26:05;5.05;;;3.33;;
85472;SDS011;75874;41.386;22.136;2024-01-30T04:28:32;7.45;;;3.08;;
85472;SDS011;75874;41.386;22.136;2024-01-30T04:30:57;3.72;;;2.30;;
85472;SDS011;75874;41.386;22.136;2024-01-30T04:33:23;4.57;;;2.63;;
85472;SDS011;75874;41.386;22.136;2024-01-30T04:35:48;6.25;;;3.72;;
85472;SDS011;75874;41.386;22.136;2024-01-30T04:38:14;4.50;;;2.80;;
85472;SDS011;75874;41.386;22.136;2024-01-30T04:40:40;6.95;;;2.95;;
85472;SDS011;75874;41.386;22.136;2024-01-30T04:43:21;4.43;;;2.85;;
85472;SDS011;75874;41.386;22.136;2024-01-30T04:45:47;4.60;;;2.45;;
85472;SDS011;75874;41.386;22.136;2024-01-30T04:48:14;12.43;;;2.67;;
85472;SDS011;75874;41.386;22.136;2024-01-30T04:50:39;4.97;;;2.65;;
85472;SDS011;75874;41.386;22.136;2024-01-30T04:53:05;4.97;;;2.95;;
85472;SDS011;75874;41.386;22.136;2024-01-30T04:55:31;3.70;;;2.60;;
85472;SDS011;75874;41.386;22.136;2024-01-30T04:57:56;5.05;;;3.20;;
85472;SDS011;75874;41.386;22.136;2024-01-30T05:00:22;6.13;;;2.97;;
85472;SDS011;75874;41.386;22.136;2024-01-30T05:02:48;4.78;;;3.30;;
85472;SDS011;75874;41.386;22.136;2024-01-30T05:05:13;4.70;;;2.72;;
85472;SDS011;75874;41.386;22.136;2024-01-30T05:07:41;5.38;;;2.83;;
85472;SDS011;75874;41.386;22.136;2024-01-30T05:10:06;7.45;;;2.70;;
85472;SDS011;75874;41.386;22.136;2024-01-30T05:12:34;4.53;;;2.58;;
85472;SDS011;75874;41.386;22.136;2024-01-30T05:14:59;4.18;;;2.38;;
85472;SDS011;75874;41.386;22.136;2024-01-30T05:17:25;5.45;;;3.10;;
85472;SDS011;75874;41.386;22.136;2024-01-30T05:19:50;3.35;;;2.55;;
85472;SDS011;75874;41.386;22.136;2024-01-30T05:22:16;4.05;;;2.70;;
85472;SDS011;75874;41.386;22.136;2024-01-30T05:27:40;4.70;;;2.60;;
85472;SDS011;75874;41.386;22.136;2024-01-30T05:30:06;4.53;;;2.65;;
85472;SDS011;75874;41.386;22.136;2024-01-30T05:32:33;4.15;;;2.70;;
85472;SDS011;75874;41.386;22.136;2024-01-30T05:34:58;3.33;;;2.40;;
85472;SDS011;75874;41.386;22.136;2024-01-30T05:37:24;4.50;;;2.60;;
85472;SDS011;75874;41.386;22.136;2024-01-30T05:39:50;6.88;;;2.40;;
85472;SDS011;75874;41.386;22.136;2024-01-30T05:42:15;4.78;;;3.25;;
85472;SDS011;75874;41.386;22.136;2024-01-30T05:44:42;4.13;;;2.25;;
85472;SDS011;75874;41.386;22.136;2024-01-30T05:47:08;4.85;;;2.85;;
85472;SDS011;75874;41.386;22.136;2024-01-30T05:49:33;6.93;;;3.03;;
85472;SDS011;75874;41.386;22.136;2024-01-30T05:52:01;3.80;;;2.45;;
85472;SDS011;75874;41.386;22.136;2024-01-30T05:54:29;4.10;;;2.08;;
85472;SDS011;75874;41.386;22.136;2024-01-30T05:56:54;5.57;;;2.45;;
85472;SDS011;75874;41.386;22.136;2024-01-30T05:59:23;4.32;;;2.70;;
85472;SDS011;75874;41.386;22.136;2024-01-30T06:01:49;5.70;;;2.83;;
85472;SDS011;75874;41.386;22.136;2024-01-30T06:04:15;4.13;;;2.45;;
85472;SDS011;75874;41.386;22.136;2024-01-30T06:06:41;4.90;;;2.70;;
85472;SDS011;75874;41.386;22.136;2024-01-30T06:09:06;4.35;;;2.58;;
85472;SDS011;75874;41.386;22.136;2024-01-30T06:11:35;4.03;;;2.53;;
85472;SDS011;75874;41.386;22.136;2024-01-30T06:14:01;4.78;;;2.55;;
85472;SDS011;75874;41.386;22.136;2024-01-30T06:16:26;4.88;;;2.45;;
85472;SDS011;75874;41.386;22.136;2024-01-30T06:18:55;4.38;;;2.30;;
85472;SDS011;75874;41.386;22.136;2024-01-30T06:21:21;3.67;;;2.28;;
85472;SDS011;75874;41.386;22.136;2024-01-30T06:23:49;4.20;;;2.60;;
85472;SDS011;75874;41.386;22.136;2024-01-30T06:26:15;3.28;;;1.98;;
85472;SDS011;75874;41.386;22.136;2024-01-30T06:28:52;4.95;;;2.72;;
85472;SDS011;75874;41.386;22.136;2024-01-30T06:31:19;6.80;;;3.28;;
85472;SDS011;75874;41.386;22.136;2024-01-30T06:33:46;4.93;;;3.20;;
85472;SDS011;75874;41.386;22.136;2024-01-30T06:36:12;3.47;;;2.35;;
85472;SDS011;75874;41.386;22.136;2024-01-30T06:38:39;3.33;;;1.80;;
85472;SDS011;75874;41.386;22.136;2024-01-30T06:41:06;3.22;;;2.35;;
85472;SDS011;75874;41.386;22.136;2024-01-30T06:46:35;5.15;;;1.98;;
85472;SDS011;75874;41.386;22.136;2024-01-30T06:49:01;5.43;;;2.90;;
85472;SDS011;75874;41.386;22.136;2024-01-30T06:51:26;4.72;;;2.17;;
85472;SDS011;75874;41.386;22.136;2024-01-30T06:53:52;4.22;;;2.42;;
85472;SDS011;75874;41.386;22.136;2024-01-30T06:56:17;5.00;;;2.67;;
85472;SDS011;75874;41.386;22.136;2024-01-30T06:58:49;2.90;;;1.90;;
85472;SDS011;75874;41.386;22.136;2024-01-30T07:03:41;3.88;;;2.10;;
85472;SDS011;75874;41.386;22.136;2024-01-30T07:06:07;2.42;;;1.67;;
85472;SDS011;75874;41.386;22.136;2024-01-30T07:08:44;3.78;;;2.30;;
85472;SDS011;75874;41.386;22.136;2024-01-30T07:11:09;3.60;;;1.55;;
85472;SDS011;75874;41.386;22.136;2024-01-30T07:13:37;4.25;;;2.50;;
85472;SDS011;75874;41.386;22.136;2024-01-30T07:16:03;3.88;;;2.17;;
85472;SDS011;75874;41.386;22.136;2024-01-30T07:18:29;3.80;;;2.60;;
85472;SDS011;75874;41.386;22.136;2024-01-30T07:20:54;2.67;;;1.92;;
85472;SDS011;75874;41.386;22.136;2024-01-30T07:23:20;6.65;;;2.97;;
85472;SDS011;75874;41.386;22.136;2024-01-30T07:25:46;4.60;;;2.33;;
85472;SDS011;75874;41.386;22.136;2024-01-30T07:28:15;4.60;;;2.10;;
85472;SDS011;75874;41.386;22.136;2024-01-30T07:30:43;3.42;;;1.98;;
85472;SDS011;75874;41.386;22.136;2024-01-30T07:33:09;3.90;;;2.28;;
85472;SDS011;75874;41.386;22.136;2024-01-30T07:35:35;3.65;;;2.33;;
85472;SDS011;75874;41.386;22.136;2024-01-30T07:38:01;3.65;;;2.13;;
85472;SDS011;75874;41.386;22.136;2024-01-30T07:40:27;4.10;;;1.80;;
85472;SDS011;75874;41.386;22.136;2024-01-30T07:42:53;5.57;;;3.25;;
85472;SDS011;75874;41.386;22.136;2024-01-30T07:45:19;3.20;;;2.13;;
85472;SDS011;75874;41.386;22.136;2024-01-30T07:47:50;3.42;;;2.22;;
85472;SDS011;75874;41.386;22.136;2024-01-30T07:50:17;5.05;;;2.63;;
85472;SDS011;75874;41.386;22.136;2024-01-30T07:52:44;3.50;;;2.47;;
85472;SDS011;75874;41.386;22.136;2024-01-30T07:58:14;8.75;;;2.72;;
85472;SDS011;75874;41.386;22.136;2024-01-30T08:03:47;2.67;;;1.98;;
85472;SDS011;75874;41.386;22.136;2024-01-30T08:06:13;3.22;;;2.08;;
85472;SDS011;75874;41.386;22.136;2024-01-30T08:08:39;4.35;;;3.13;;
85472;SDS011;75874;41.386;22.136;2024-01-30T08:11:04;4.72;;;2.42;;
85472;SDS011;75874;41.386;22.136;2024-01-30T08:13:30;5.65;;;2.80;;
85472;SDS011;75874;41.386;22.136;2024-01-30T08:15:56;5.05;;;2.95;;
85472;SDS011;75874;41.386;22.136;2024-01-30T08:18:21;3.13;;;2.03;;
85472;SDS011;75874;41.386;22.136;2024-01-30T08:20:47;5.97;;;2.45;;
85472;SDS011;75874;41.386;22.136;2024-01-30T08:23:14;4.57;;;2.78;;
85472;SDS011;75874;41.386;22.136;2024-01-30T08:25:39;4.88;;;2.60;;
85472;SDS011;75874;41.386;22.136;2024-01-30T08:28:05;4.88;;;2.58;;
85472;SDS011;75874;41.386;22.136;2024-01-30T08:30:32;5.03;;;2.70;;
85472;SDS011;75874;41.386;22.136;2024-01-30T08:35:57;3.92;;;2.50;;
85472;SDS011;75874;41.386;22.136;2024-01-30T08:38:23;6.45;;;3.55;;
85472;SDS011;75874;41.386;22.136;2024-01-30T08:40:49;3.95;;;2.05;;
85472;SDS011;75874;41.386;22.136;2024-01-30T08:43:14;5.55;;;2.95;;
85472;SDS011;75874;41.386;22.136;2024-01-30T08:45:40;3.95;;;2.60;;
85472;SDS011;75874;41.386;22.136;2024-01-30T08:48:06;5.00;;;2.55;;
85472;SDS011;75874;41.386;22.136;2024-01-30T08:50:33;4.75;;;3.15;;
85472;SDS011;75874;41.386;22.136;2024-01-30T08:52:59;4.20;;;2.80;;
85472;SDS011;75874;41.386;22.136;2024-01-30T08:55:25;5.68;;;2.78;;
85472;SDS011;75874;41.386;22.136;2024-01-30T08:57:51;4.57;;;3.03;;
85472;SDS011;75874;41.386;22.136;2024-01-30T09:03:18;4.55;;;2.10;;
85472;SDS011;75874;41.386;22.136;2024-01-30T09:05:44;4.97;;;2.70;;
85472;SDS011;75874;41.386;22.136;2024-01-30T09:08:10;5.00;;;2.70;;
85472;SDS011;75874;41.386;22.136;2024-01-30T09:10:35;3.35;;;1.95;;
85472;SDS011;75874;41.386;22.136;2024-01-30T09:13:02;4.95;;;2.63;;
85472;SDS011;75874;41.386;22.136;2024-01-30T09:15:28;4.85;;;2.38;;
85472;SDS011;75874;41.386;22.136;2024-01-30T09:17:53;4.20;;;2.05;;
85472;SDS011;75874;41.386;22.136;2024-01-30T09:20:19;3.88;;;2.47;;
85472;SDS011;75874;41.386;22.136;2024-01-30T09:22:47;5.55;;;3.13;;
85472;SDS011;75874;41.386;22.136;2024-01-30T09:25:14;7.13;;;3.00;;
85472;SDS011;75874;41.386;22.136;2024-01-30T09:27:40;5.40;;;2.88;;
85472;SDS011;75874;41.386;22.136;2024-01-30T09:30:06;6.22;;;2.47;;
85472;SDS011;75874;41.386;22.136;2024-01-30T09:32:32;3.63;;;1.98;;
85472;SDS011;75874;41.386;22.136;2024-01-30T09:34:58;3.67;;;2.00;;
85472;SDS011;75874;41.386;22.136;2024-01-30T09:37:23;2.65;;;1.70;;
85472;SDS011;75874;41.386;22.136;2024-01-30T09:39:49;2.42;;;1.35;;
85472;SDS011;75874;41.386;22.136;2024-01-30T09:42:20;3.05;;;1.70;;
85472;SDS011;75874;41.386;22.136;2024-01-30T09:44:50;3.03;;;2.00;;
85472;SDS011;75874;41.386;22.136;2024-01-30T09:47:18;2.30;;;1.70;;
85472;SDS011;75874;41.386;22.136;2024-01-30T09:49:44;3.45;;;2.20;;
85472;SDS011;75874;41.386;22.136;2024-01-30T09:52:10;3.78;;;1.75;;
85472;SDS011;75874;41.386;22.136;2024-01-30T09:54:36;3.55;;;2.00;;
85472;SDS011;75874;41.386;22.136;2024-01-30T09:57:04;3.97;;;2.20;;
85472;SDS011;75874;41.386;22.136;2024-01-30T09:59:30;3.78;;;1.98;;
85472;SDS011;75874;41.386;22.136;2024-01-30T10:04:53;2.38;;;1.85;;
85472;SDS011;75874;41.386;22.136;2024-01-30T10:07:19;3.15;;;2.00;;
85472;SDS011;75874;41.386;22.136;2024-01-30T10:09:45;3.47;;;1.70;;
85472;SDS011;75874;41.386;22.136;2024-01-30T10:12:12;2.33;;;1.70;;
85472;SDS011;75874;41.386;22.136;2024-01-30T10:14:40;4.38;;;1.85;;
85472;SDS011;75874;41.386;22.136;2024-01-30T10:17:07;2.45;;;1.60;;
85472;SDS011;75874;41.386;22.136;2024-01-30T10:19:37;2.55;;;1.80;;
85472;SDS011;75874;41.386;22.136;2024-01-30T10:22:04;3.17;;;2.03;;
85472;SDS011;75874;41.386;22.136;2024-01-30T10:24:30;3.15;;;1.77;;
85472;SDS011;75874;41.386;22.136;2024-01-30T10:26:56;2.85;;;1.85;;
85472;SDS011;75874;41.386;22.136;2024-01-30T10:29:22;3.10;;;1.85;;
85472;SDS011;75874;41.386;22.136;2024-01-30T10:32:04;2.90;;;1.90;;
85472;SDS011;75874;41.386;22.136;2024-01-30T10:34:30;2.20;;;1.75;;
85472;SDS011;75874;41.386;22.136;2024-01-30T10:37:06;4.75;;;2.20;;
85472;SDS011;75874;41.386;22.136;2024-01-30T10:39:43;3.08;;;2.10;;
85472;SDS011;75874;41.386;22.136;2024-01-30T10:42:11;4.35;;;2.40;;
85472;SDS011;75874;41.386;22.136;2024-01-30T10:47:27;2.75;;;1.80;;
85472;SDS011;75874;41.386;22.136;2024-01-30T10:49:54;4.35;;;2.20;;
85472;SDS011;75874;41.386;22.136;2024-01-30T10:52:22;4.10;;;2.42;;
85472;SDS011;75874;41.386;22.136;2024-01-30T10:54:51;2.92;;;2.00;;
85472;SDS011;75874;41.386;22.136;2024-01-30T10:57:21;2.70;;;2.00;;
85472;SDS011;75874;41.386;22.136;2024-01-30T10:59:50;3.97;;;2.28;;
85472;SDS011;75874;41.386;22.136;2024-01-30T11:02:19;4.13;;;1.90;;
85472;SDS011;75874;41.386;22.136;2024-01-30T11:04:45;2.80;;;2.13;;
85472;SDS011;75874;41.386;22.136;2024-01-30T11:07:15;2.70;;;2.00;;
85472;SDS011;75874;41.386;22.136;2024-01-30T11:09:49;4.13;;;2.15;;
85472;SDS011;75874;41.386;22.136;2024-01-30T11:12:16;2.75;;;2.00;;
85472;SDS011;75874;41.386;22.136;2024-01-30T11:14:46;3.35;;;2.20;;
85472;SDS011;75874;41.386;22.136;2024-01-30T11:17:12;3.25;;;2.10;;
85472;SDS011;75874;41.386;22.136;2024-01-30T11:19:37;3.20;;;2.40;;
85472;SDS011;75874;41.386;22.136;2024-01-30T11:22:06;2.83;;;2.08;;
85472;SDS011;75874;41.386;22.136;2024-01-30T11:24:38;2.70;;;2.10;;
85472;SDS011;75874;41.386;22.136;2024-01-30T11:27:09;2.50;;;1.90;;
85472;SDS011;75874;41.386;22.136;2024-01-30T11:29:38;3.28;;;2.00;;
85472;SDS011;75874;41.386;22.136;2024-01-30T11:32:05;3.35;;;2.45;;
85472;SDS011;75874;41.386;22.136;2024-01-30T11:34:35;4.07;;;2.17;;
85472;SDS011;75874;41.386;22.136;2024-01-30T11:37:09;2.97;;;2.25;;
85472;SDS011;75874;41.386;22.136;2024-01-30T11:39:37;3.83;;;2.40;;
85472;SDS011;75874;41.386;22.136;2024-01-30T11:42:03;3.17;;;2.45;;
85472;SDS011;75874;41.386;22.136;2024-01-30T11:44:33;3.53;;;2.75;;
85472;SDS011;75874;41.386;22.136;2024-01-30T11:46:59;3.20;;;2.05;;
85472;SDS011;75874;41.386;22.136;2024-01-30T11:52:09;2.60;;;1.92;;
85472;SDS011;75874;41.386;22.136;2024-01-30T11:54:39;2.95;;;2.05;;
85472;SDS011;75874;41.386;22.136;2024-01-30T11:57:05;3.08;;;2.28;;
85472;SDS011;75874;41.386;22.136;2024-01-30T11:59:31;3.58;;;2.30;;
85472;SDS011;75874;41.386;22.136;2024-01-30T12:01:57;3.05;;;2.40;;
85472;SDS011;75874;41.386;22.136;2024-01-30T12:04:22;3.28;;;2.17;;
85472;SDS011;75874;41.386;22.136;2024-01-30T12:06:51;2.65;;;2.13;;
85472;SDS011;75874;41.386;22.136;2024-01-30T12:09:17;2.53;;;2.00;;
85472;SDS011;75874;41.386;22.136;2024-01-30T12:11:45;3.15;;;2.40;;
85472;SDS011;75874;41.386;22.136;2024-01-30T12:14:12;3.35;;;2.38;;
85472;SDS011;75874;41.386;22.136;2024-01-30T12:16:38;3.60;;;2.65;;
85472;SDS011;75874;41.386;22.136;2024-01-30T12:19:04;4.85;;;2.50;;
85472;SDS011;75874;41.386;22.136;2024-01-30T12:21:30;3.15;;;2.17;;
85472;SDS011;75874;41.386;22.136;2024-01-30T12:23:56;3.25;;;2.25;;
85472;SDS011;75874;41.386;22.136;2024-01-30T12:26:23;2.83;;;1.92;;
85472;SDS011;75874;41.386;22.136;2024-01-30T12:28:55;2.97;;;2.00;;
85472;SDS011;75874;41.386;22.136;2024-01-30T12:31:26;4.60;;;2.22;;
85472;SDS011;75874;41.386;22.136;2024-01-30T12:33:59;2.83;;;2.20;;
85472;SDS011;75874;41.386;22.136;2024-01-30T12:36:25;2.85;;;1.95;;
85472;SDS011;75874;41.386;22.136;2024-01-30T12:38:51;2.47;;;2.05;;
85472;SDS011;75874;41.386;22.136;2024-01-30T12:41:17;2.85;;;2.00;;
85472;SDS011;75874;41.386;22.136;2024-01-30T12:46:10;2.67;;;2.10;;
85472;SDS011;75874;41.386;22.136;2024-01-30T12:48:36;2.90;;;2.20;;
85472;SDS011;75874;41.386;22.136;2024-01-30T12:51:02;2.95;;;2.33;;
85472;SDS011;75874;41.386;22.136;2024-01-30T12:53:27;3.03;;;2.33;;
85472;SDS011;75874;41.386;22.136;2024-01-30T12:55:53;3.08;;;2.17;;
85472;SDS011;75874;41.386;22.136;2024-01-30T12:58:19;2.83;;;2.15;;
85472;SDS011;75874;41.386;22.136;2024-01-30T13:00:45;3.22;;;2.22;;
85472;SDS011;75874;41.386;22.136;2024-01-30T13:03:12;2.45;;;2.00;;
85472;SDS011;75874;41.386;22.136;2024-01-30T13:05:38;2.67;;;2.00;;
85472;SDS011;75874;41.386;22.136;2024-01-30T13:08:04;3.00;;;2.15;;
85472;SDS011;75874;41.386;22.136;2024-01-30T13:10:30;2.72;;;1.90;;
85472;SDS011;75874;41.386;22.136;2024-01-30T13:12:55;3.08;;;2.08;;
85472;SDS011;75874;41.386;22.136;2024-01-30T13:15:21;3.20;;;2.17;;
85472;SDS011;75874;41.386;22.136;2024-01-30T13:17:48;3.35;;;1.92;;
85472;SDS011;75874;41.386;22.136;2024-01-30T13:20:15;2.97;;;2.10;;
85472;SDS011;75874;41.386;22.136;2024-01-30T13:22:46;3.00;;;2.03;;
85472;SDS011;75874;41.386;22.136;2024-01-30T13:25:16;3.17;;;2.30;;
85472;SDS011;75874;41.386;22.136;2024-01-30T13:27:42;4.05;;;2.22;;
85472;SDS011;75874;41.386;22.136;2024-01-30T13:30:08;3.22;;;2.55;;
85472;SDS011;75874;41.386;22.136;2024-01-30T13:32:36;3.35;;;2.30;;
85472;SDS011;75874;41.386;22.136;2024-01-30T13:35:02;5.38;;;2.70;;
85472;SDS011;75874;41.386;22.136;2024-01-30T13:37:28;3.22;;;2.30;;
85472;SDS011;75874;41.386;22.136;2024-01-30T13:39:55;3.45;;;2.33;;
85472;SDS011;75874;41.386;22.136;2024-01-30T13:42:22;3.15;;;2.30;;
85472;SDS011;75874;41.386;22.136;2024-01-30T13:44:48;3.90;;;2.50;;
85472;SDS011;75874;41.386;22.136;2024-01-30T13:47:14;2.67;;;2.03;;
85472;SDS011;75874;41.386;22.136;2024-01-30T13:49:40;2.42;;;2.00;;
85472;SDS011;75874;41.386;22.136;2024-01-30T13:52:05;2.90;;;2.33;;
85472;SDS011;75874;41.386;22.136;2024-01-30T13:54:31;5.15;;;2.83;;
85472;SDS011;75874;41.386;22.136;2024-01-30T13:56:57;2.80;;;2.15;;
85472;SDS011;75874;41.386;22.136;2024-01-30T13:59:23;2.85;;;2.28;;
85472;SDS011;75874;41.386;22.136;2024-01-30T14:01:51;2.80;;;2.13;;
85472;SDS011;75874;41.386;22.136;2024-01-30T14:04:17;2.50;;;1.77;;
85472;SDS011;75874;41.386;22.136;2024-01-30T14:06:42;3.17;;;1.58;;
85472;SDS011;75874;41.386;22.136;2024-01-30T14:09:08;2.42;;;2.00;;
85472;SDS011;75874;41.386;22.136;2024-01-30T14:11:35;3.38;;;2.17;;
85472;SDS011;75874;41.386;22.136;2024-01-30T14:14:01;2.78;;;1.60;;
85472;SDS011;75874;41.386;22.136;2024-01-30T14:16:26;2.83;;;2.03;;
85472;SDS011;75874;41.386;22.136;2024-01-30T14:18:54;3.78;;;1.95;;
85472;SDS011;75874;41.386;22.136;2024-01-30T14:21:19;4.70;;;2.33;;
85472;SDS011;75874;41.386;22.136;2024-01-30T14:23:45;2.70;;;2.10;;
85472;SDS011;75874;41.386;22.136;2024-01-30T14:26:12;2.97;;;2.30;;
85472;SDS011;75874;41.386;22.136;2024-01-30T14:28:38;3.42;;;2.20;;
85472;SDS011;75874;41.386;22.136;2024-01-30T14:31:03;3.45;;;2.20;;
85472;SDS011;75874;41.386;22.136;2024-01-30T14:33:30;3.28;;;2.10;;
85472;SDS011;75874;41.386;22.136;2024-01-30T14:35:56;2.88;;;1.88;;
85472;SDS011;75874;41.386;22.136;2024-01-30T14:38:21;3.15;;;2.08;;
85472;SDS011;75874;41.386;22.136;2024-01-30T14:40:47;4.18;;;2.78;;
85472;SDS011;75874;41.386;22.136;2024-01-30T14:43:13;2.85;;;1.83;;
85472;SDS011;75874;41.386;22.136;2024-01-30T14:45:39;2.22;;;1.67;;
85472;SDS011;75874;41.386;22.136;2024-01-30T14:48:05;2.97;;;2.00;;
85472;SDS011;75874;41.386;22.136;2024-01-30T14:50:32;4.43;;;2.22;;
85472;SDS011;75874;41.386;22.136;2024-01-30T14:52:58;3.33;;;1.75;;
85472;SDS011;75874;41.386;22.136;2024-01-30T14:55:24;3.97;;;2.30;;
85472;SDS011;75874;41.386;22.136;2024-01-30T14:57:50;3.42;;;2.15;;
85472;SDS011;75874;41.386;22.136;2024-01-30T15:00:15;5.50;;;1.90;;
85472;SDS011;75874;41.386;22.136;2024-01-30T15:02:41;2.53;;;1.65;;
85472;SDS011;75874;41.386;22.136;2024-01-30T15:05:07;3.55;;;1.98;;
85472;SDS011;75874;41.386;22.136;2024-01-30T15:07:36;3.65;;;2.03;;
85472;SDS011;75874;41.386;22.136;2024-01-30T15:10:02;4.55;;;1.90;;
85472;SDS011;75874;41.386;22.136;2024-01-30T15:12:28;4.03;;;2.20;;